createdAt,value
2023-09-07T00:00:18.166Z,99.90
2023-09-07T00:02:45.452Z,99.90
2023-09-07T00:05:14.473Z,99.90
2023-09-07T00:07:41.610Z,99.90
2023-09-07T00:10:09.102Z,99.90
2023-09-07T00:12:36.120Z,99.90
2023-09-07T00:15:04.341Z,99.90
2023-09-07T00:17:31.284Z,99.90
2023-09-07T00:19:59.300Z,99.90
2023-09-07T00:22:26.956Z,99.90
2023-09-07T00:24:54.013Z,99.90
2023-09-07T00:27:21.016Z,99.90
2023-09-07T00:29:48.250Z,99.90
2023-09-07T00:32:15.214Z,99.90
2023-09-07T00:34:42.278Z,99.90
2023-09-07T00:37:09.427Z,99.90
2023-09-07T00:39:36.353Z,99.90
2023-09-07T00:42:03.586Z,99.90
2023-09-07T00:44:30.577Z,99.90
2023-09-07T00:47:01.164Z,99.90
2023-09-07T00:49:28.564Z,99.90
2023-09-07T00:51:56.188Z,99.90
2023-09-07T00:54:23.224Z,99.90
2023-09-07T00:56:50.225Z,99.90
2023-09-07T00:59:17.236Z,99.90
2023-09-07T01:01:44.434Z,99.90
2023-09-07T01:04:12.828Z,99.90
2023-09-07T01:06:50.850Z,99.90
2023-09-07T01:09:25.707Z,99.90
2023-09-07T01:11:54.038Z,99.90
2023-09-07T01:14:21.125Z,99.90
2023-09-07T01:16:48.474Z,99.90
2023-09-07T01:19:15.655Z,99.90
2023-09-07T01:21:42.918Z,99.90
2023-09-07T06:20:33.496Z,99.90
2023-09-07T06:23:00.459Z,99.90
2023-09-07T06:25:28.430Z,99.90
2023-09-07T06:27:55.406Z,99.90
2023-09-07T06:30:23.413Z,99.90
2023-09-07T06:32:52.291Z,99.90
2023-09-07T06:35:19.739Z,99.90
2023-09-07T06:37:46.823Z,99.90
2023-09-07T06:40:14.685Z,99.90
2023-09-07T06:42:41.630Z,99.90
2023-09-07T06:45:09.620Z,99.90
2023-09-07T06:47:36.689Z,99.90
2023-09-07T06:50:04.796Z,99.90
2023-09-07T06:52:32.044Z,99.90
2023-09-07T06:54:59.022Z,99.90
2023-09-07T06:57:26.047Z,99.90
2023-09-07T06:59:53.053Z,99.90
2023-09-07T07:02:20.073Z,99.90
2023-09-07T07:04:47.564Z,99.90
2023-09-07T07:07:14.832Z,99.90
2023-09-07T07:09:41.900Z,99.90
2023-09-07T07:12:08.819Z,99.90
2023-09-07T07:14:39.096Z,99.90
2023-09-07T07:17:06.332Z,99.90
2023-09-07T07:19:35.858Z,99.90
2023-09-07T07:22:03.618Z,99.90
2023-09-07T07:24:30.562Z,99.90
2023-09-07T07:26:57.433Z,99.90
2023-09-07T07:29:24.554Z,99.90
2023-09-07T07:31:51.561Z,99.90
2023-09-07T07:34:19.909Z,98.80
2023-09-07T07:36:46.857Z,96.60
2023-09-07T07:39:13.778Z,95.80
2023-09-07T07:41:42.811Z,95.20
2023-09-07T07:44:10.919Z,94.40
2023-09-07T07:46:38.062Z,93.90
2023-09-07T07:49:05.890Z,93.60
2023-09-07T07:51:33.272Z,92.60
2023-09-07T07:54:00.607Z,92.30
2023-09-07T07:56:27.752Z,91.90
2023-09-07T07:58:55.046Z,91.80
2023-09-07T08:01:22.663Z,91.20
2023-09-07T08:03:49.901Z,90.80
2023-09-07T08:06:17.261Z,91.10
2023-09-07T08:08:44.172Z,91.20
2023-09-07T08:11:12.672Z,91.10
2023-09-07T08:13:40.993Z,91.50
2023-09-07T08:16:08.168Z,91.90
2023-09-07T08:18:36.690Z,92.00
2023-09-07T08:21:04.209Z,92.20
2023-09-07T08:23:31.082Z,92.60
2023-09-07T08:25:58.197Z,92.50
2023-09-07T08:28:26.671Z,93.20
2023-09-07T08:30:56.528Z,93.50
2023-09-07T08:33:30.293Z,94.00
2023-09-07T08:35:58.625Z,94.30
2023-09-07T08:38:29.540Z,94.30
2023-09-07T08:40:57.126Z,94.70
2023-09-07T08:43:24.819Z,95.00
2023-09-07T08:46:13.330Z,95.10
2023-09-07T08:48:43.364Z,95.30
2023-09-07T08:51:14.431Z,95.40
2023-09-07T08:53:42.330Z,95.30
2023-09-07T08:56:12.470Z,95.50
2023-09-07T08:58:41.276Z,95.90
2023-09-07T09:01:09.650Z,96.10
2023-09-07T09:03:38.321Z,96.00
2023-09-07T09:06:09.178Z,96.10
2023-09-07T09:08:56.999Z,96.00
2023-09-07T09:11:27.269Z,96.20
2023-09-07T09:13:55.563Z,96.50
2023-09-07T09:16:22.809Z,96.60
2023-09-07T09:18:58.441Z,96.50
2023-09-07T09:21:27.298Z,96.30
2023-09-07T09:23:57.660Z,95.90
2023-09-07T09:26:25.801Z,96.00
2023-09-07T09:28:57.358Z,96.20
2023-09-07T09:31:25.981Z,96.50
2023-09-07T09:33:53.788Z,96.70
2023-09-07T09:36:22.005Z,96.70
2023-09-07T09:38:51.846Z,96.70
2023-09-07T09:41:19.155Z,96.30
2023-09-07T09:43:50.395Z,96.00
2023-09-07T09:46:18.501Z,96.10
2023-09-07T09:48:46.057Z,95.80
2023-09-07T09:51:15.619Z,95.80
2023-09-07T09:53:44.162Z,95.60
2023-09-07T09:56:11.570Z,95.60
2023-09-07T09:58:38.922Z,95.80
2023-09-07T10:01:09.197Z,95.50
2023-09-07T10:03:47.161Z,95.50
2023-09-07T10:06:31.195Z,95.60
2023-09-07T10:09:07.791Z,95.30
2023-09-07T10:11:41.084Z,95.30
2023-09-07T10:14:09.254Z,95.00
2023-09-07T10:16:50.944Z,94.70
2023-09-07T10:19:23.808Z,94.30
2023-09-07T10:21:54.819Z,94.50
2023-09-07T10:24:48.004Z,93.90
2023-09-07T10:27:14.928Z,93.80
2023-09-07T10:30:11.038Z,93.90
2023-09-07T10:32:44.645Z,93.70
2023-09-07T10:35:23.082Z,93.50
2023-09-07T10:37:50.186Z,93.50
2023-09-07T10:40:29.618Z,93.30
2023-09-07T10:43:04.951Z,93.30
2023-09-07T10:45:31.939Z,93.30
2023-09-07T10:47:58.994Z,92.90
2023-09-07T10:50:26.004Z,92.60
2023-09-07T10:52:52.897Z,92.40
2023-09-07T10:55:19.873Z,91.80
2023-09-07T10:57:49.104Z,92.00
2023-09-07T11:00:16.934Z,92.30
2023-09-07T11:02:44.962Z,92.30
2023-09-07T11:05:21.876Z,92.20
2023-09-07T11:07:48.949Z,91.90
2023-09-07T11:10:16.419Z,92.20
2023-09-07T11:12:48.898Z,92.20
2023-09-07T11:15:19.812Z,91.90
2023-09-07T11:17:53.692Z,91.90
2023-09-07T11:20:24.150Z,91.50
2023-09-07T11:23:05.257Z,91.50
2023-09-07T11:25:37.962Z,91.20
2023-09-07T11:28:08.253Z,90.90
2023-09-07T11:30:35.710Z,90.50
2023-09-07T11:33:08.515Z,90.00
2023-09-07T11:35:35.788Z,89.30
2023-09-07T11:38:07.965Z,89.40
2023-09-07T11:40:44.054Z,89.20
2023-09-07T11:43:14.629Z,90.10
2023-09-07T11:45:47.406Z,89.40
2023-09-07T11:48:14.816Z,87.10
2023-09-07T11:50:41.934Z,86.90
2023-09-07T11:53:09.168Z,86.80
2023-09-07T11:55:36.792Z,87.90
2023-09-07T11:58:06.154Z,87.10
2023-09-07T12:00:33.419Z,87.10
2023-09-07T12:03:00.878Z,86.90
2023-09-07T12:05:29.183Z,86.10
2023-09-07T12:07:56.282Z,84.90
2023-09-07T12:10:23.361Z,83.90
2023-09-07T12:12:50.442Z,83.40
2023-09-07T12:15:17.434Z,83.20
2023-09-07T12:17:46.891Z,81.20
2023-09-07T12:20:15.541Z,79.90
2023-09-07T12:22:42.612Z,80.20
2023-09-07T12:25:15.542Z,81.20
2023-09-07T12:27:54.163Z,80.40
2023-09-07T12:30:25.015Z,79.90
2023-09-07T12:32:53.392Z,80.20
2023-09-07T12:35:21.535Z,80.60
2023-09-07T12:37:48.709Z,79.70
2023-09-07T12:40:16.102Z,79.10
2023-09-07T12:42:45.902Z,79.40
2023-09-07T12:45:15.374Z,79.40
2023-09-07T12:47:42.819Z,79.20
2023-09-07T12:50:09.986Z,80.40
2023-09-07T12:52:40.051Z,79.00
2023-09-07T12:55:10.888Z,79.80
2023-09-07T12:57:38.519Z,79.90
2023-09-07T13:00:07.328Z,78.10
2023-09-07T13:02:34.454Z,78.40
2023-09-07T13:05:01.437Z,77.40
2023-09-07T13:07:28.350Z,78.30
2023-09-07T13:09:56.384Z,76.60
2023-09-07T13:12:23.400Z,76.20
2023-09-07T13:14:50.428Z,75.30
2023-09-07T13:17:17.450Z,74.20
2023-09-07T13:19:45.115Z,73.80
2023-09-07T13:22:12.360Z,73.10
2023-09-07T13:24:39.535Z,72.90
2023-09-07T13:27:06.957Z,73.10
2023-09-07T13:29:34.520Z,73.30
2023-09-07T13:32:01.714Z,73.00
2023-09-07T13:34:29.295Z,73.20
2023-09-07T13:36:57.148Z,72.10
2023-09-07T13:39:24.627Z,71.60
2023-09-07T13:41:51.596Z,71.00
2023-09-07T13:44:19.020Z,71.00
2023-09-07T13:46:46.328Z,71.70
2023-09-07T13:49:13.620Z,71.90
2023-09-07T13:51:44.040Z,71.90
2023-09-07T13:54:11.315Z,71.30
2023-09-07T13:56:38.675Z,70.90
2023-09-07T13:59:05.916Z,70.20
2023-09-07T14:01:33.439Z,70.10
2023-09-07T14:04:01.197Z,70.20
2023-09-07T14:06:28.293Z,69.50
2023-09-07T14:08:55.326Z,70.10
2023-09-07T14:11:23.810Z,69.70
2023-09-07T14:13:55.670Z,69.20
2023-09-07T14:16:23.423Z,69.70
2023-09-07T14:18:51.286Z,69.00
2023-09-07T14:21:19.043Z,69.10
2023-09-07T14:23:46.728Z,69.60
2023-09-07T14:26:14.142Z,68.70
2023-09-07T14:28:41.635Z,68.40
2023-09-07T14:31:09.251Z,68.10
2023-09-07T14:33:40.237Z,68.60
2023-09-07T14:36:08.138Z,67.90
2023-09-07T14:38:43.049Z,68.40
2023-09-07T14:41:19.831Z,69.10
2023-09-07T14:43:48.657Z,68.40
2023-09-07T14:46:16.816Z,68.40
2023-09-07T14:48:45.243Z,68.20
2023-09-07T14:51:13.695Z,67.80
2023-09-07T14:53:40.872Z,68.10
2023-09-07T14:56:08.031Z,68.30
2023-09-07T14:58:35.227Z,68.70
2023-09-07T15:01:02.533Z,68.40
2023-09-07T15:03:29.458Z,68.80
2023-09-07T15:05:56.763Z,68.60
2023-09-07T15:08:24.008Z,69.40
2023-09-07T15:10:51.450Z,69.60
2023-09-07T15:13:18.742Z,71.00
2023-09-07T15:15:45.910Z,70.20
2023-09-07T15:18:12.936Z,70.10
2023-09-07T15:20:40.126Z,70.20
2023-09-07T15:23:07.170Z,70.50
2023-09-07T15:25:34.187Z,70.50
2023-09-07T15:28:01.354Z,70.90
2023-09-07T15:30:28.366Z,70.80
2023-09-07T15:32:55.419Z,71.20
2023-09-07T15:35:23.134Z,71.40
2023-09-07T15:37:50.308Z,72.00
2023-09-07T15:40:17.356Z,72.30
2023-09-07T15:42:44.314Z,72.40
2023-09-07T15:45:11.619Z,72.20
2023-09-07T15:47:39.214Z,72.30
2023-09-07T15:50:08.555Z,72.30
2023-09-07T15:52:49.681Z,72.60
2023-09-07T15:55:19.313Z,73.30
2023-09-07T15:57:48.808Z,73.10
2023-09-07T16:00:17.156Z,72.70
2023-09-07T16:02:46.241Z,73.00
2023-09-07T16:05:13.525Z,73.00
2023-09-07T16:07:40.579Z,72.90
2023-09-07T16:10:08.255Z,73.30
2023-09-07T16:12:35.239Z,73.10
2023-09-07T16:15:02.234Z,74.10
2023-09-07T16:17:29.262Z,74.30
2023-09-07T16:19:57.410Z,74.40
2023-09-07T16:22:24.471Z,74.70
2023-09-07T16:24:51.426Z,74.90
2023-09-07T16:27:18.596Z,75.40
2023-09-07T16:29:46.751Z,75.50
2023-09-07T16:32:15.506Z,75.50
2023-09-07T16:34:44.522Z,75.80
2023-09-07T16:37:11.477Z,76.10
2023-09-07T16:39:38.479Z,76.30
2023-09-07T16:42:05.801Z,76.40
2023-09-07T16:44:32.762Z,76.30
2023-09-07T16:46:59.682Z,75.90
2023-09-07T16:49:26.738Z,76.10
2023-09-07T16:51:53.908Z,76.80
2023-09-07T16:54:21.007Z,76.90
2023-09-07T16:59:55.464Z,77.30
2023-09-07T17:02:17.199Z,77.10
2023-09-07T17:04:46.022Z,77.50
2023-09-07T17:07:13.022Z,77.90
2023-09-07T17:09:41.653Z,78.30
2023-09-07T17:15:03.326Z,79.20
2023-09-07T17:17:35.836Z,79.40
2023-09-07T17:20:04.676Z,79.50
2023-09-07T17:22:32.275Z,79.60
2023-09-07T17:24:59.201Z,79.70
2023-09-07T17:27:26.733Z,80.00
2023-09-07T17:29:54.016Z,80.10
2023-09-07T17:32:21.809Z,81.20
2023-09-07T17:34:49.972Z,81.40
2023-09-07T17:37:16.868Z,80.90
2023-09-07T17:39:44.035Z,82.20
2023-09-07T17:42:11.015Z,83.30
2023-09-07T17:44:40.525Z,84.70
2023-09-07T17:47:15.991Z,85.50
2023-09-07T17:49:43.203Z,86.30
2023-09-07T17:52:10.407Z,86.40
2023-09-07T17:54:38.047Z,87.00
2023-09-07T17:57:05.688Z,87.50
2023-09-07T17:59:32.664Z,88.00
2023-09-07T18:02:06.999Z,88.40
2023-09-07T18:04:34.140Z,89.00
2023-09-07T18:07:04.355Z,89.70
2023-09-07T18:09:32.084Z,90.20
2023-09-07T18:11:59.257Z,90.70
2023-09-07T18:14:26.784Z,90.70
2023-09-07T18:16:55.418Z,91.00
2023-09-07T18:19:22.543Z,91.20
2023-09-07T18:21:53.735Z,91.60
2023-09-07T18:24:21.314Z,91.90
2023-09-07T18:26:55.005Z,92.10
2023-09-07T18:29:22.427Z,92.50
2023-09-07T18:31:49.491Z,92.80
2023-09-07T18:34:16.879Z,93.00
2023-09-07T18:36:45.070Z,93.20
2023-09-07T18:39:12.399Z,93.50
2023-09-07T18:41:39.299Z,93.40
2023-09-07T18:44:09.051Z,93.50
2023-09-07T18:46:36.684Z,93.70
2023-09-07T18:49:08.740Z,93.90
2023-09-07T18:51:35.790Z,94.00
2023-09-07T18:54:02.784Z,94.20
2023-09-07T18:56:29.848Z,94.30
2023-09-07T18:58:57.203Z,94.50
2023-09-07T19:01:26.255Z,94.70
2023-09-07T19:04:07.230Z,94.90
2023-09-07T19:06:35.325Z,95.10
2023-09-07T19:09:02.319Z,95.30
2023-09-07T19:11:29.343Z,95.50
2023-09-07T19:13:56.439Z,95.70
2023-09-07T19:16:25.377Z,95.80
2023-09-07T19:19:16.793Z,95.90
2023-09-07T19:21:43.804Z,96.40
2023-09-07T19:24:18.230Z,96.40
2023-09-07T19:26:46.450Z,96.60
2023-09-07T19:29:17.256Z,96.90
2023-09-07T19:31:45.762Z,97.10
2023-09-07T19:34:14.353Z,97.30
2023-09-07T19:36:52.690Z,97.50
2023-09-07T19:39:22.452Z,97.60
2023-09-07T19:41:51.548Z,97.80
2023-09-07T19:44:19.397Z,98.00
2023-09-07T19:46:46.951Z,98.20
2023-09-07T19:49:15.480Z,98.30
2023-09-07T19:51:42.585Z,98.40
2023-09-07T19:54:09.845Z,98.60
2023-09-07T19:56:36.911Z,98.90
2023-09-07T19:59:03.851Z,98.70
2023-09-07T20:01:30.861Z,98.70
2023-09-07T20:03:57.910Z,98.80
2023-09-07T20:06:26.217Z,99.00
2023-09-07T20:08:53.587Z,99.10
2023-09-07T20:11:20.700Z,99.30
2023-09-07T20:13:48.677Z,99.40
2023-09-07T20:16:17.100Z,99.60
2023-09-07T20:18:47.111Z,99.70
2023-09-07T20:21:14.161Z,99.90
2023-09-07T20:23:41.741Z,99.90
2023-09-07T20:26:08.632Z,99.90
2023-09-07T20:28:44.286Z,99.90
2023-09-07T20:31:11.807Z,99.90
2023-09-07T20:33:38.888Z,99.90
2023-09-07T20:36:06.950Z,99.90
2023-09-07T20:38:34.765Z,99.90
2023-09-07T20:41:02.629Z,99.90
2023-09-07T20:43:29.694Z,99.90
2023-09-07T20:45:57.894Z,99.90
2023-09-07T20:48:25.005Z,99.90
2023-09-07T20:50:52.316Z,99.90
2023-09-07T20:53:19.664Z,99.90
2023-09-07T20:55:46.635Z,99.90
2023-09-07T20:58:13.706Z,99.90
2023-09-07T21:00:40.850Z,99.90
2023-09-07T21:03:08.037Z,99.90
2023-09-07T21:05:35.838Z,99.90
2023-09-07T21:08:04.478Z,99.90
2023-09-07T21:10:31.500Z,99.90
2023-09-07T21:12:59.149Z,99.90
2023-09-07T21:15:26.683Z,99.90
2023-09-07T21:17:54.864Z,99.90
2023-09-07T21:20:22.054Z,99.90
2023-09-07T21:22:49.024Z,99.90
2023-09-07T21:25:16.768Z,99.90
2023-09-07T21:27:45.202Z,99.90
2023-09-07T21:30:13.121Z,99.90
2023-09-07T21:32:40.130Z,99.90
2023-09-07T21:35:07.531Z,99.90
2023-09-07T21:37:34.518Z,99.90
2023-09-07T21:40:01.524Z,99.90
2023-09-07T21:42:28.558Z,99.90
2023-09-07T21:44:55.752Z,99.90
2023-09-07T21:47:29.755Z,99.90
2023-09-07T21:49:56.889Z,99.90
2023-09-07T21:52:24.910Z,99.90
2023-09-07T21:54:52.257Z,99.90
2023-09-07T21:57:24.735Z,99.90
2023-09-07T21:59:55.123Z,99.90
2023-09-07T22:02:26.156Z,99.90
2023-09-07T22:04:53.718Z,99.90
2023-09-07T22:07:20.869Z,99.90
2023-09-07T22:09:48.993Z,99.90
2023-09-07T22:12:16.010Z,99.90
2023-09-07T22:14:42.907Z,99.90
2023-09-07T22:17:09.947Z,99.90
2023-09-07T22:19:37.940Z,99.90
2023-09-07T22:24:32.412Z,99.90
2023-09-07T22:26:59.447Z,99.90
2023-09-07T22:29:26.458Z,99.90
2023-09-07T22:31:53.404Z,99.90
2023-09-07T22:34:20.525Z,99.90
2023-09-07T22:36:47.498Z,99.90
2023-09-07T22:39:14.461Z,99.90
2023-09-07T22:41:41.477Z,99.90
2023-09-07T22:44:08.836Z,99.90
2023-09-07T22:46:35.859Z,99.90
2023-09-07T22:49:03.436Z,99.90
2023-09-07T22:51:30.616Z,99.90
2023-09-07T22:53:57.876Z,99.90
2023-09-07T22:56:25.479Z,99.90
2023-09-07T22:58:52.734Z,99.90
2023-09-07T23:01:20.035Z,99.90
2023-09-07T23:03:47.313Z,99.90
2023-09-07T23:06:14.603Z,99.90
2023-09-07T23:08:41.689Z,99.90
2023-09-07T23:11:08.836Z,99.90
2023-09-07T23:13:36.398Z,99.90
2023-09-07T23:16:04.412Z,99.90
2023-09-07T23:18:33.196Z,99.90
2023-09-07T23:21:00.504Z,99.90
2023-09-07T23:23:27.716Z,99.90
